Time;durP1;ratioP1;P1;durP2;ratioP2;P2;SDS_P1;SDS_P2;PMS_P1;PMS_P2;Temp;Humidity;BMP_temperature;BMP_pressure;BME280_temperature;BME280_humidity;BME280_pressure;Samples;Min_cycle;Max_cycle;Signal;HPM_P1;HPM_P2
2022/12/31 00:00:37;;;;;;;0.65;0.30;;;;;;;-145.69;100.00;52547.38;5075516;28;20195;-76
2022/12/31 00:03:05;;;;;;;0.73;0.47;;;;;;;-145.69;100.00;52513.69;5075641;28;20202;-76
2022/12/31 00:05:32;;;;;;;0.65;0.40;;;;;;;-145.69;100.00;52527.56;5075604;28;20687;-77
2022/12/31 00:07:59;;;;;;;2.78;0.60;;;;;;;-145.69;100.00;52531.53;5075490;28;20231;-76
2022/12/31 00:10:25;;;;;;;0.50;0.50;;;;;;;-145.69;100.00;52543.41;5079854;28;20202;-76
2022/12/31 00:12:52;;;;;;;0.57;0.50;;;;;;;-145.69;100.00;52539.44;5095932;28;20198;-76
2022/12/31 00:15:18;;;;;;;1.90;0.50;;;;;;;-145.69;100.00;52539.44;5095448;28;20664;-76
2022/12/31 00:17:44;;;;;;;0.75;0.60;;;;;;;-145.69;100.00;52511.72;5095700;28;20208;-76
2022/12/31 00:20:12;;;;;;;0.55;0.55;;;;;;;-145.69;100.00;52533.50;5081370;28;20256;-77
2022/12/31 00:22:39;;;;;;;0.57;0.40;;;;;;;-145.69;100.00;52515.69;5074344;28;20917;-76
2022/12/31 00:25:06;;;;;;;0.50;0.50;;;;;;;-145.69;100.00;52545.38;5075443;28;20194;-76
2022/12/31 00:27:33;;;;;;;0.80;0.60;;;;;;;-145.69;100.00;52519.63;5076487;28;20219;-76
2022/12/31 00:29:59;;;;;;;1.25;0.60;;;;;;;-145.69;100.00;52531.53;5075036;28;20673;-76
2022/12/31 00:32:26;;;;;;;1.75;0.73;;;;;;;-145.69;100.00;52523.59;5075250;28;20206;-76
2022/12/31 00:34:52;;;;;;;0.60;0.60;;;;;;;-145.69;100.00;52519.63;5075009;28;20779;-76
2022/12/31 00:37:20;;;;;;;0.93;0.50;;;;;;;-145.69;100.00;52515.69;5074871;28;20199;-76
2022/12/31 00:39:46;;;;;;;0.40;0.40;;;;;;;-145.69;100.00;52525.59;5075218;28;20202;-76
2022/12/31 00:42:13;;;;;;;0.95;0.50;;;;;;;-145.69;100.00;52499.84;5074785;28;20235;-75
2022/12/31 00:44:39;;;;;;;0.65;0.65;;;;;;;-145.69;100.00;52567.16;5074991;28;20203;-76
2022/12/31 00:47:05;;;;;;;0.65;0.65;;;;;;;-145.69;100.00;52509.75;5074569;28;20690;-76
2022/12/31 00:49:32;;;;;;;0.65;0.50;;;;;;;-145.69;100.00;52515.69;5074796;28;20230;-76
2022/12/31 00:51:58;;;;;;;0.45;0.45;;;;;;;-145.69;100.00;52521.63;5074551;28;20210;-75
2022/12/31 00:54:26;;;;;;;0.90;0.52;;;;;;;-145.69;100.00;52495.88;5074875;28;20199;-76
2022/12/31 00:56:52;;;;;;;0.60;0.60;;;;;;;-145.69;100.00;52507.75;5074602;28;20202;-75
2022/12/31 00:59:19;;;;;;;1.02;0.60;;;;;;;-145.69;100.00;52517.66;5074646;28;20649;-76
2022/12/31 01:01:45;;;;;;;1.23;0.52;;;;;;;-145.69;100.00;52547.38;5074309;28;20206;-76
2022/12/31 01:04:14;;;;;;;0.90;0.60;;;;;;;-145.69;100.00;52491.91;5074434;28;20299;-76
2022/12/31 01:06:41;;;;;;;1.75;0.50;;;;;;;-145.69;100.00;52503.81;5074098;28;20434;-76
2022/12/31 01:09:09;;;;;;;1.38;0.68;;;;;;;-145.69;100.00;52531.53;5074331;28;20219;-75
2022/12/31 01:11:37;;;;;;;0.63;0.57;;;;;;;-145.69;100.00;52519.63;5073944;28;20210;-76
2022/12/31 01:14:05;;;;;;;0.57;0.57;;;;;;;-145.69;100.00;52511.72;5074447;28;20210;-76
2022/12/31 01:16:33;;;;;;;0.70;0.68;;;;;;;-145.69;100.00;52523.59;5073894;28;20248;-76
2022/12/31 01:19:02;;;;;;;0.65;0.60;;;;;;;-145.69;100.00;52541.44;5073949;28;20195;-76
2022/12/31 01:21:29;;;;;;;0.50;0.50;;;;;;;-145.69;100.00;52519.63;5074159;28;20203;-76
2022/12/31 01:23:56;;;;;;;0.98;0.60;;;;;;;-145.69;100.00;52493.91;5074092;28;20661;-75
2022/12/31 01:26:22;;;;;;;2.67;0.60;;;;;;;-145.69;100.00;52545.38;5074122;28;20199;-75
2022/12/31 01:28:50;;;;;;;1.15;0.60;;;;;;;-145.69;100.00;52519.63;5074286;28;20233;-76
2022/12/31 01:31:19;;;;;;;0.60;0.60;;;;;;;-145.69;100.00;52533.50;5073756;28;20198;-75
2022/12/31 01:33:46;;;;;;;0.50;0.50;;;;;;;-145.69;100.00;52507.75;5074058;28;20217;-76
2022/12/31 01:36:14;;;;;;;0.70;0.50;;;;;;;-145.69;100.00;52547.38;5074101;28;20206;-76
2022/12/31 01:38:41;;;;;;;0.38;0.38;;;;;;;-145.69;100.00;52501.81;5073626;28;20202;-76
2022/12/31 01:41:11;;;;;;;1.95;0.50;;;;;;;-145.69;100.00;52519.63;5073782;28;20234;-76
2022/12/31 01:43:46;;;;;;;0.80;0.40;;;;;;;-145.69;100.00;52535.47;5073862;28;20199;-75
2022/12/31 01:46:27;;;;;;;1.95;0.70;;;;;;;-145.69;100.00;52515.69;5073705;28;20201;-76
2022/12/31 01:48:57;;;;;;;0.50;0.50;;;;;;;-145.69;100.00;52535.47;5073708;28;20233;-76
2022/12/31 01:51:27;;;;;;;0.93;0.43;;;;;;;-145.69;100.00;52523.59;5073639;28;20546;-76
2022/12/31 01:53:54;;;;;;;0.70;0.52;;;;;;;-145.69;100.00;52553.31;5073505;28;20202;-76
2022/12/31 01:56:23;;;;;;;1.30;0.50;;;;;;;-145.69;100.00;52503.81;5069127;28;20209;-77
2022/12/31 01:58:52;;;;;;;1.27;0.60;;;;;;;-145.69;100.00;52507.75;5073101;28;20210;-76
2022/12/31 02:01:24;;;;;;;0.50;0.50;;;;;;;-145.69;100.00;52527.56;5073363;28;20221;-77
2022/12/31 02:03:50;;;;;;;1.23;0.70;;;;;;;-145.69;100.00;52541.44;5073474;28;20199;-77
2022/12/31 02:06:21;;;;;;;1.83;0.50;;;;;;;-145.69;100.00;52511.72;5073004;28;20660;-76
2022/12/31 02:08:47;;;;;;;0.52;0.52;;;;;;;-145.69;100.00;52525.59;5072547;28;20238;-77
2022/12/31 02:11:23;;;;;;;3.33;0.60;;;;;;;-145.69;100.00;52507.75;5073183;28;20209;-77
2022/12/31 02:13:51;;;;;;;1.30;0.75;;;;;;;-145.69;100.00;52535.47;5073256;28;20221;-77
2022/12/31 02:16:27;;;;;;;1.63;0.60;;;;;;;-145.69;100.00;52543.41;5073370;28;20194;-77
2022/12/31 02:19:00;;;;;;;0.93;0.50;;;;;;;-145.69;100.00;52491.91;5073030;28;20209;-77
2022/12/31 02:21:42;;;;;;;2.05;0.60;;;;;;;-145.69;100.00;52521.63;5073054;28;20199;-77
2022/12/31 02:24:48;;;;;;;0.50;0.50;;;;;;;-145.69;100.00;52484.00;5072950;28;20653;-77
2022/12/31 02:27:29;;;;;;;1.00;0.60;;;;;;;-145.69;100.00;52517.66;5073251;28;20199;-77
2022/12/31 02:30:12;;;;;;;0.93;0.60;;;;;;;-145.69;100.00;52515.69;5072647;28;20230;-77
2022/12/31 02:33:04;;;;;;;0.50;0.50;;;;;;;-145.69;100.00;52511.72;5073012;28;20194;-77
2022/12/31 02:35:34;;;;;;;0.65;0.40;;;;;;;-145.69;100.00;52499.84;5067241;28;20195;-77
2022/12/31 02:38:05;;;;;;;0.50;0.50;;;;;;;-145.69;100.00;52511.72;5072974;28;20199;-77
2022/12/31 02:40:34;;;;;;;2.28;0.70;;;;;;;-145.69;100.00;52466.16;5072793;28;20199;-77
2022/12/31 02:43:00;;;;;;;0.60;0.60;;;;;;;-145.69;100.00;52503.81;5072682;28;20264;-77
2022/12/31 02:45:32;;;;;;;1.52;0.50;;;;;;;-145.69;100.00;52501.81;5072818;28;20649;-77
2022/12/31 02:48:14;;;;;;;0.50;0.50;;;;;;;-145.69;100.00;52472.13;5072734;28;20217;-77
2022/12/31 02:50:55;;;;;;;0.65;0.60;;;;;;;-145.69;100.00;52476.06;5072624;28;20195;-77
2022/12/31 02:53:34;;;;;;;0.63;0.50;;;;;;;-145.69;100.00;52497.84;5073161;28;20226;-77
2022/12/31 02:56:08;;;;;;;1.48;0.40;;;;;;;-145.69;100.00;52515.69;5072837;28;20199;-76
2022/12/31 03:04:32;;;;;;;1.95;0.40;;;;;;;-145.69;100.00;52491.91;5072801;28;20222;-76
2022/12/31 03:07:00;;;;;;;0.52;0.50;;;;;;;-145.69;100.00;52470.13;5072630;28;20256;-77
2022/12/31 03:09:26;;;;;;;0.50;0.50;;;;;;;-145.69;100.00;52497.84;5072564;28;20237;-77
2022/12/31 03:14:37;;;;;;;0.60;0.60;;;;;;;-145.69;100.00;52515.69;5076769;28;20197;-76
2022/12/31 03:17:05;;;;;;;1.40;0.50;;;;;;;-145.69;100.00;52517.66;5076377;28;20206;-76
2022/12/31 03:22:27;;;;;;;0.70;0.40;;;;;;;-145.69;100.00;52507.75;5076491;28;20213;-76
2022/12/31 03:27:38;;;;;;;0.73;0.57;;;;;;;-145.69;100.00;52495.88;5075830;28;20197;-76
2022/12/31 03:30:06;;;;;;;0.60;0.60;;;;;;;-145.69;100.00;52503.81;5075904;28;20227;-77
2022/12/31 03:32:34;;;;;;;1.02;0.50;;;;;;;-145.69;100.00;52499.84;5076418;28;20198;-76
2022/12/31 03:35:00;;;;;;;1.77;0.40;;;;;;;-145.69;100.00;52527.56;5075954;28;20669;-76
2022/12/31 03:37:27;;;;;;;0.50;0.50;;;;;;;-145.69;100.00;52521.63;5076096;28;20209;-77
2022/12/31 03:39:53;;;;;;;0.75;0.60;;;;;;;-145.69;100.00;52515.69;5076132;28;20198;-76
2022/12/31 03:42:19;;;;;;;1.95;0.40;;;;;;;-145.69;100.00;52501.81;5075848;28;20608;-76
2022/12/31 03:44:46;;;;;;;3.92;0.50;;;;;;;-145.69;100.00;52531.53;5076862;28;20214;-76
2022/12/31 03:47:12;;;;;;;3.13;0.60;;;;;;;-145.69;100.00;52529.53;5075555;28;20210;-76
2022/12/31 03:49:40;;;;;;;3.30;0.50;;;;;;;-145.69;100.00;52521.63;5075870;28;20233;-77
2022/12/31 03:52:07;;;;;;;2.85;0.60;;;;;;;-145.69;100.00;52537.47;5074335;28;20260;-76
2022/12/31 03:54:33;;;;;;;0.55;0.55;;;;;;;-145.69;100.00;52531.53;5073808;28;20198;-77
2022/12/31 03:57:00;;;;;;;0.55;0.55;;;;;;;-145.69;100.00;52511.72;5075757;28;20206;-76
2022/12/31 03:59:26;;;;;;;1.15;0.55;;;;;;;-145.69;100.00;52521.63;5075752;28;20199;-76
2022/12/31 04:01:53;;;;;;;0.68;0.60;;;;;;;-145.69;100.00;52519.63;5075463;28;20217;-76
2022/12/31 04:04:19;;;;;;;0.57;0.57;;;;;;;-145.69;100.00;52541.44;5075337;28;20230;-76
2022/12/31 04:06:48;;;;;;;2.17;0.60;;;;;;;-145.69;100.00;52535.47;5075772;28;20206;-76
2022/12/31 04:09:14;;;;;;;1.50;0.60;;;;;;;-145.69;100.00;52539.44;5075563;28;20241;-76
2022/12/31 04:11:41;;;;;;;2.00;0.70;;;;;;;-145.69;100.00;52501.81;5075660;28;20657;-77
2022/12/31 04:14:07;;;;;;;4.35;0.50;;;;;;;-145.69;100.00;52557.28;5075491;28;20198;-76
2022/12/31 04:16:34;;;;;;;1.55;0.70;;;;;;;-145.69;100.00;52535.47;5075589;28;20202;-76
2022/12/31 04:19:00;;;;;;;2.47;0.73;;;;;;;-145.69;100.00;52519.63;5075579;28;20210;-76
2022/12/31 04:21:27;;;;;;;1.05;0.65;;;;;;;-145.69;100.00;52503.81;5074853;28;20214;-76
2022/12/31 04:23:54;;;;;;;0.95;0.50;;;;;;;-145.69;100.00;52539.44;5075030;28;20549;-77
2022/12/31 04:26:21;;;;;;;0.95;0.70;;;;;;;-145.69;100.00;52523.59;5075319;28;20195;-76
2022/12/31 04:28:47;;;;;;;1.58;0.70;;;;;;;-145.69;100.00;52533.50;5075143;28;20241;-77
2022/12/31 04:31:14;;;;;;;0.82;0.57;;;;;;;-145.69;100.00;52539.44;5074667;28;20588;-76
2022/12/31 04:33:40;;;;;;;0.75;0.60;;;;;;;-145.69;100.00;52519.63;5075121;28;20195;-76
2022/12/31 04:36:08;;;;;;;1.00;0.60;;;;;;;-145.69;100.00;52535.47;5075152;28;20202;-76
2022/12/31 04:38:34;;;;;;;2.25;0.50;;;;;;;-145.69;100.00;52511.72;5074379;28;20206;-77
2022/12/31 04:41:18;;;;;;;2.58;0.70;;;;;;;-145.69;100.00;52499.84;5074729;28;20199;-77
2022/12/31 04:43:46;;;;;;;0.75;0.75;;;;;;;-145.69;100.00;52515.69;5075012;28;20238;-77
2022/12/31 04:46:14;;;;;;;0.52;0.52;;;;;;;-145.69;100.00;52509.75;5074891;28;20645;-76
2022/12/31 04:48:40;;;;;;;0.40;0.40;;;;;;;-145.69;100.00;52525.59;5074417;28;20320;-76
2022/12/31 04:51:07;;;;;;;0.70;0.57;;;;;;;-145.69;100.00;52507.75;5074911;28;20225;-76
2022/12/31 04:53:33;;;;;;;0.77;0.43;;;;;;;-145.69;100.00;52519.63;5074713;28;20684;-76
2022/12/31 04:56:00;;;;;;;0.52;0.38;;;;;;;-145.69;100.00;52531.53;5074307;28;20650;-76
2022/12/31 04:58:28;;;;;;;3.83;0.70;;;;;;;-145.69;100.00;52519.63;5074260;28;20232;-76
2022/12/31 05:00:55;;;;;;;0.50;0.50;;;;;;;-145.69;100.00;52531.53;5074472;28;20199;-76
2022/12/31 05:03:23;;;;;;;0.40;0.40;;;;;;;-145.69;100.00;52531.53;5074744;28;20207;-76
2022/12/31 05:05:49;;;;;;;0.80;0.50;;;;;;;-145.69;100.00;52515.69;5074361;28;20222;-76
2022/12/31 05:08:17;;;;;;;0.40;0.40;;;;;;;-145.69;100.00;52491.91;5074112;28;20388;-76
2022/12/31 05:10:45;;;;;;;0.77;0.50;;;;;;;-145.69;100.00;52511.72;5074382;28;20226;-77
2022/12/31 05:13:12;;;;;;;0.40;0.40;;;;;;;-145.69;100.00;52493.91;5074582;28;20203;-76
2022/12/31 05:15:40;;;;;;;0.50;0.50;;;;;;;-145.69;100.00;52519.63;5074062;28;20198;-76
2022/12/31 05:18:07;;;;;;;1.85;0.75;;;;;;;-145.69;100.00;52499.84;5074291;28;20217;-77
2022/12/31 05:20:33;;;;;;;0.77;0.50;;;;;;;-145.69;100.00;52499.84;5074183;28;20210;-77
2022/12/31 05:23:00;;;;;;;0.40;0.40;;;;;;;-145.69;100.00;52555.28;5073656;28;20554;-77
2022/12/31 05:25:27;;;;;;;0.30;0.30;;;;;;;-145.69;100.00;52525.59;5073891;28;20199;-77
2022/12/31 05:27:53;;;;;;;0.40;0.40;;;;;;;-145.69;100.00;52527.56;5074317;28;20209;-77
2022/12/31 05:30:19;;;;;;;1.02;0.47;;;;;;;-145.69;100.00;52517.66;5073818;28;20240;-78
2022/12/31 05:32:47;;;;;;;1.70;0.52;;;;;;;-145.69;100.00;52484.00;5073706;28;20565;-77
2022/12/31 05:35:14;;;;;;;0.47;0.47;;;;;;;-145.69;100.00;52472.13;5072817;28;20600;-77
2022/12/31 05:37:40;;;;;;;0.88;0.50;;;;;;;-145.69;100.00;52501.81;5073492;28;20654;-77
2022/12/31 05:40:08;;;;;;;0.50;0.50;;;;;;;-145.69;100.00;52523.59;5074127;28;20225;-77
2022/12/31 05:42:34;;;;;;;0.90;0.52;;;;;;;-145.69;100.00;52505.78;5073678;28;20243;-77
2022/12/31 05:45:01;;;;;;;0.30;0.30;;;;;;;-145.69;100.00;52509.75;5073798;28;20203;-77
2022/12/31 05:47:28;;;;;;;5.68;0.52;;;;;;;-145.69;100.00;52482.00;5073484;28;20336;-77
2022/12/31 05:49:56;;;;;;;2.20;0.40;;;;;;;-145.69;100.00;52503.81;5073511;28;20226;-76
2022/12/31 05:52:22;;;;;;;0.40;0.40;;;;;;;-145.69;100.00;52472.13;5062241;28;20676;-77
2022/12/31 05:54:49;;;;;;;1.80;0.50;;;;;;;-145.69;100.00;52487.97;5054928;28;20676;-76
2022/12/31 05:57:15;;;;;;;3.75;0.50;;;;;;;-145.69;100.00;52495.88;5073284;28;20209;-76
2022/12/31 05:59:42;;;;;;;0.40;0.40;;;;;;;-145.69;100.00;52513.69;5073631;28;20203;-77
2022/12/31 06:02:08;;;;;;;0.50;0.43;;;;;;;-145.69;100.00;52507.75;5072695;28;20676;-77
2022/12/31 06:04:34;;;;;;;0.50;0.50;;;;;;;-145.69;100.00;52537.47;5073325;28;20224;-76
2022/12/31 06:07:02;;;;;;;0.55;0.55;;;;;;;-145.69;100.00;52555.28;5073125;28;20207;-77
2022/12/31 06:09:29;;;;;;;2.08;0.47;;;;;;;-145.69;100.00;52523.59;5073435;28;20230;-77
2022/12/31 06:11:55;;;;;;;0.50;0.45;;;;;;;-145.69;100.00;52519.63;5073351;28;20210;-77
2022/12/31 06:14:22;;;;;;;0.70;0.50;;;;;;;-145.69;100.00;52523.59;5073233;28;20661;-76
2022/12/31 06:16:48;;;;;;;0.40;0.40;;;;;;;-145.69;100.00;52493.91;5073238;28;20249;-76
2022/12/31 06:19:14;;;;;;;0.40;0.40;;;;;;;-145.69;100.00;52503.81;5072583;28;20211;-76
2022/12/31 06:21:41;;;;;;;1.33;0.57;;;;;;;-145.69;100.00;52511.72;5073365;28;20203;-76
2022/12/31 06:24:09;;;;;;;0.52;0.40;;;;;;;-145.69;100.00;52489.94;5072984;28;20577;-76
2022/12/31 06:26:36;;;;;;;0.45;0.45;;;;;;;-145.69;100.00;52545.38;5072992;28;20195;-76
2022/12/31 06:29:02;;;;;;;0.73;0.60;;;;;;;-145.69;100.00;52543.41;5073073;28;20603;-76
2022/12/31 06:31:29;;;;;;;0.40;0.40;;;;;;;-145.69;100.00;52523.59;5072723;28;20198;-76
2022/12/31 06:33:55;;;;;;;0.80;0.47;;;;;;;-145.69;100.00;52495.88;5073340;28;20206;-76
2022/12/31 06:36:22;;;;;;;1.13;0.60;;;;;;;-145.69;100.00;52507.75;5072825;28;20543;-76
2022/12/31 06:38:49;;;;;;;0.60;0.43;;;;;;;-145.69;100.00;52497.84;5072908;28;20210;-76
2022/12/31 06:41:17;;;;;;;0.45;0.45;;;;;;;-145.69;100.00;52487.97;5072927;28;20237;-76
2022/12/31 06:43:44;;;;;;;0.47;0.47;;;;;;;-145.69;100.00;52515.69;5072784;28;20282;-76
2022/12/31 06:46:12;;;;;;;0.52;0.50;;;;;;;-145.69;100.00;52513.69;5072592;28;20207;-76
2022/12/31 06:48:41;;;;;;;0.57;0.40;;;;;;;-145.69;100.00;52529.53;5072516;28;20199;-77
2022/12/31 06:51:09;;;;;;;2.63;0.60;;;;;;;-145.69;100.00;52521.63;5072604;28;20230;-76
2022/12/31 06:53:36;;;;;;;0.80;0.50;;;;;;;-145.69;100.00;52527.56;5072477;28;20198;-76
2022/12/31 06:56:05;;;;;;;0.40;0.40;;;;;;;-145.69;100.00;52511.72;5072405;28;20202;-76
2022/12/31 06:58:34;;;;;;;0.60;0.50;;;;;;;-145.69;100.00;52503.81;5072865;28;20203;-76
2022/12/31 07:01:14;;;;;;;0.95;0.60;;;;;;;-145.69;100.00;52515.69;5072690;28;20202;-76
2022/12/31 07:03:49;;;;;;;0.68;0.40;;;;;;;-145.69;100.00;52559.25;5072485;28;20202;-76
2022/12/31 07:06:22;;;;;;;0.98;0.47;;;;;;;-145.69;100.00;52507.75;5072670;28;20202;-75
2022/12/31 07:08:54;;;;;;;0.57;0.50;;;;;;;-145.69;100.00;52503.81;5072511;28;20199;-76
2022/12/31 07:11:23;;;;;;;1.42;0.50;;;;;;;-145.69;100.00;52505.78;5072617;28;20238;-75
2022/12/31 07:14:03;;;;;;;0.75;0.60;;;;;;;-145.69;100.00;52487.97;5073468;28;20218;-75
2022/12/31 07:16:40;;;;;;;1.17;0.75;;;;;;;-145.69;100.00;52519.63;5072807;28;20610;-76
2022/12/31 07:19:17;;;;;;;2.13;1.08;;;;;;;-145.69;100.00;52517.66;5072648;28;20289;-76
2022/12/31 07:21:44;;;;;;;1.85;0.75;;;;;;;-145.69;100.00;52511.72;5072163;28;20225;-76
2022/12/31 07:24:12;;;;;;;2.00;0.98;;;;;;;-145.69;100.00;52523.59;5072457;28;20195;-75
2022/12/31 07:27:00;;;;;;;0.60;0.60;;;;;;;-145.69;100.00;52543.41;5072366;28;20203;-75
2022/12/31 07:29:39;;;;;;;2.22;0.82;;;;;;;-145.69;100.00;52499.84;5072205;28;20199;-75
2022/12/31 07:32:18;;;;;;;0.90;0.60;;;;;;;-145.69;100.00;52511.72;5072112;28;20784;-75
2022/12/31 07:34:54;;;;;;;2.05;0.60;;;;;;;-145.69;100.00;52495.88;5072636;28;20203;-76
2022/12/31 07:37:30;;;;;;;1.45;0.60;;;;;;;-145.69;100.00;52539.44;5072194;28;20210;-77
2022/12/31 07:40:03;;;;;;;1.20;0.70;;;;;;;-145.69;100.00;52513.69;5071925;28;20195;-76
2022/12/31 07:42:39;;;;;;;0.77;0.77;;;;;;;-145.69;100.00;52513.69;5072078;28;20238;-76
2022/12/31 07:45:16;;;;;;;2.05;0.60;;;;;;;-145.69;100.00;52543.41;5072554;28;20199;-76
2022/12/31 07:47:43;;;;;;;0.77;0.57;;;;;;;-145.69;100.00;52493.91;5072467;28;20205;-76
2022/12/31 07:50:14;;;;;;;1.10;0.60;;;;;;;-145.69;100.00;52551.31;5072216;28;20227;-75
2022/12/31 07:52:41;;;;;;;0.63;0.60;;;;;;;-145.69;100.00;52525.59;5057005;28;20211;-77
2022/12/31 07:55:09;;;;;;;1.63;0.75;;;;;;;-145.69;100.00;52515.69;5056469;28;20198;-76
2022/12/31 07:57:40;;;;;;;0.63;0.60;;;;;;;-145.69;100.00;52503.81;5074283;28;20286;-76
2022/12/31 08:00:13;;;;;;;1.55;0.60;;;;;;;-145.69;100.00;52511.72;5075682;28;20665;-75
2022/12/31 08:03:05;;;;;;;1.05;0.52;;;;;;;-145.69;100.00;52521.63;5075158;28;20669;-75
2022/12/31 08:05:39;;;;;;;0.70;0.70;;;;;;;-145.69;100.00;52529.53;5075441;28;20215;-76
2022/12/31 08:08:16;;;;;;;1.30;0.50;;;;;;;-145.69;100.00;52503.81;5075741;28;20209;-76
2022/12/31 08:10:50;;;;;;;0.40;0.40;;;;;;;-145.69;100.00;52533.50;5075727;28;20229;-76
2022/12/31 08:13:17;;;;;;;1.05;0.52;;;;;;;-145.69;100.00;52533.50;5075644;28;20251;-75
2022/12/31 08:15:46;;;;;;;0.52;0.50;;;;;;;-145.69;100.00;52519.63;5075368;28;20230;-76
2022/12/31 08:18:12;;;;;;;2.97;0.40;;;;;;;-145.69;100.00;52499.84;5075430;28;20676;-76
2022/12/31 08:20:49;;;;;;;1.92;0.65;;;;;;;-145.69;100.00;52511.72;5074999;28;20688;-75
2022/12/31 08:23:24;;;;;;;1.00;0.60;;;;;;;-145.69;100.00;52519.63;5075490;28;20210;-76
2022/12/31 08:26:06;;;;;;;0.70;0.70;;;;;;;-145.69;100.00;52507.75;5075026;28;20234;-76
2022/12/31 08:28:51;;;;;;;0.93;0.55;;;;;;;-145.69;100.00;52499.84;5075035;28;20198;-76
2022/12/31 08:31:23;;;;;;;0.90;0.70;;;;;;;-145.69;100.00;52501.81;5075304;28;20566;-76
2022/12/31 08:33:55;;;;;;;1.05;0.70;;;;;;;-145.69;100.00;52478.06;5075080;28;20211;-76
2022/12/31 08:36:29;;;;;;;0.68;0.68;;;;;;;-145.69;100.00;52480.03;5075020;28;20199;-76
2022/12/31 08:39:01;;;;;;;0.50;0.50;;;;;;;-145.69;100.00;52503.81;5074766;28;20664;-76
2022/12/31 08:41:32;;;;;;;1.17;0.40;;;;;;;-145.69;100.00;52487.97;5075122;28;20230;-77
2022/12/31 08:44:08;;;;;;;1.48;0.80;;;;;;;-145.69;100.00;52484.00;5074806;28;20203;-77
2022/12/31 08:46:43;;;;;;;0.50;0.50;;;;;;;-145.69;100.00;52487.97;5075502;28;20214;-76
2022/12/31 08:49:11;;;;;;;0.70;0.55;;;;;;;-145.69;100.00;52485.97;5074884;28;20599;-76
2022/12/31 08:51:38;;;;;;;1.25;0.70;;;;;;;-145.69;100.00;52503.81;5074384;28;20234;-76
2022/12/31 08:54:05;;;;;;;0.57;0.50;;;;;;;-145.69;100.00;52454.28;5074867;28;20207;-76
2022/12/31 08:56:36;;;;;;;1.38;0.60;;;;;;;-145.69;100.00;52478.06;5074796;28;20194;-77
2022/12/31 08:59:25;;;;;;;0.60;0.60;;;;;;;-145.69;100.00;52472.13;5074350;28;20247;-77
2022/12/31 09:02:16;;;;;;;2.42;0.70;;;;;;;-145.69;100.00;52487.97;5074365;28;20210;-76
2022/12/31 09:04:55;;;;;;;1.20;0.70;;;;;;;-145.69;100.00;52491.91;5074548;28;20202;-76
2022/12/31 09:07:28;;;;;;;1.80;0.70;;;;;;;-145.69;100.00;52521.63;5074538;28;20206;-76
2022/12/31 09:10:01;;;;;;;2.17;0.93;;;;;;;-145.69;100.00;52466.16;5073822;28;20203;-76
2022/12/31 09:12:35;;;;;;;1.48;0.90;;;;;;;-145.69;100.00;52468.16;5074636;28;20229;-76
2022/12/31 09:15:09;;;;;;;1.20;0.70;;;;;;;-145.69;100.00;52462.22;5074390;28;20199;-76
2022/12/31 09:17:46;;;;;;;1.17;0.75;;;;;;;-145.69;100.00;52485.97;5073765;28;20191;-76
2022/12/31 09:20:21;;;;;;;0.95;0.73;;;;;;;-145.69;100.00;52476.06;5074033;28;20213;-76
2022/12/31 09:22:48;;;;;;;0.50;0.50;;;;;;;-145.69;100.00;52468.16;5074469;28;20543;-76
2022/12/31 09:25:16;;;;;;;0.98;0.88;;;;;;;-145.69;100.00;52480.03;5074219;28;20217;-76
2022/12/31 09:27:50;;;;;;;1.65;0.65;;;;;;;-145.69;100.00;52480.03;5074024;28;20202;-79
2022/12/31 09:30:18;;;;;;;0.57;0.50;;;;;;;-145.69;100.00;52448.34;5073724;28;20640;-78
2022/12/31 09:32:55;;;;;;;3.40;0.60;;;;;;;-145.69;100.00;52489.94;5073983;28;20256;-76
2022/12/31 09:35:34;;;;;;;0.98;0.60;;;;;;;-145.69;100.00;52460.22;5074069;28;20205;-77
2022/12/31 09:38:05;;;;;;;0.50;0.50;;;;;;;-145.69;100.00;52485.97;5073732;28;20680;-78
2022/12/31 09:41:10;;;;;;;0.40;0.40;;;;;;;-145.69;100.00;52478.06;5073919;28;20207;-77
2022/12/31 09:44:03;;;;;;;1.60;0.85;;;;;;;-145.69;100.00;52464.19;5011857;28;20361;-78
2022/12/31 09:47:07;;;;;;;1.40;0.80;;;;;;;-145.69;100.00;52476.06;5073647;28;20210;-78
2022/12/31 09:50:09;;;;;;;0.70;0.60;;;;;;;-145.69;100.00;52509.75;5072494;28;20199;-75
2022/12/31 09:52:50;;;;;;;3.42;0.52;;;;;;;-145.69;100.00;52480.03;5066965;28;20268;-76
2022/12/31 09:55:31;;;;;;;1.58;0.65;;;;;;;-145.69;100.00;52499.84;5059070;28;20191;-76
2022/12/31 09:58:05;;;;;;;0.70;0.70;;;;;;;-145.69;100.00;52456.28;5073751;28;20229;-76
2022/12/31 10:00:38;;;;;;;0.93;0.45;;;;;;;-145.69;100.00;52448.34;5070865;28;20202;-77
2022/12/31 10:03:26;;;;;;;0.80;0.50;;;;;;;-145.69;100.00;52464.19;5071523;28;20220;-77
2022/12/31 10:06:09;;;;;;;0.73;0.43;;;;;;;-145.69;100.00;52456.28;5073233;28;20198;-76
2022/12/31 10:08:48;;;;;;;2.75;0.57;;;;;;;-145.69;100.00;52458.25;5073241;28;20744;-75
2022/12/31 10:11:21;;;;;;;1.95;0.63;;;;;;;-145.69;100.00;52474.09;5073356;28;20233;-75
2022/12/31 10:13:59;;;;;;;2.63;0.70;;;;;;;-145.69;100.00;52480.03;5073183;28;20661;-76
2022/12/31 10:16:48;;;;;;;0.50;0.50;;;;;;;-145.69;100.00;52454.28;5073219;28;20201;-76
2022/12/31 10:19:43;;;;;;;0.70;0.50;;;;;;;-145.69;100.00;52460.22;5073034;28;20202;-76
2022/12/31 10:22:38;;;;;;;0.40;0.40;;;;;;;-145.69;100.00;52446.38;5073316;28;20605;-76
2022/12/31 10:25:23;;;;;;;1.33;0.60;;;;;;;-145.69;100.00;52416.66;5072992;28;20202;-76
2022/12/31 10:27:58;;;;;;;1.58;0.60;;;;;;;-145.69;100.00;52434.47;5073271;28;20199;-77
2022/12/31 10:30:30;;;;;;;0.50;0.50;;;;;;;-145.69;100.00;52462.22;5074167;28;20187;-77
2022/12/31 10:33:06;;;;;;;1.23;0.60;;;;;;;-145.69;100.00;52452.31;5072925;28;20199;-79
2022/12/31 10:35:42;;;;;;;0.30;0.30;;;;;;;-145.69;100.00;52430.53;5073144;28;20198;-77
2022/12/31 10:38:26;;;;;;;0.65;0.40;;;;;;;-145.69;100.00;52442.41;5073201;28;20609;-77
2022/12/31 10:41:38;;;;;;;1.63;0.47;;;;;;;-145.69;100.00;52436.47;5052881;28;20234;-77
2022/12/31 10:44:49;;;;;;;1.08;0.45;;;;;;;-145.69;100.00;52438.44;5010783;28;20207;-76
2022/12/31 10:47:37;;;;;;;1.10;0.70;;;;;;;-145.69;100.00;52468.16;5020525;28;20641;-76
2022/12/31 10:50:28;;;;;;;0.57;0.40;;;;;;;-145.69;100.00;52418.63;5072800;28;20198;-77
2022/12/31 10:53:17;;;;;;;1.00;0.50;;;;;;;-145.69;100.00;52446.38;5072855;28;20206;-79
2022/12/31 10:56:00;;;;;;;0.60;0.60;;;;;;;-145.69;100.00;52416.66;5071220;28;20222;-76
2022/12/31 10:59:20;;;;;;;0.57;0.50;;;;;;;-145.69;100.00;52424.59;5052390;28;20661;-77
2022/12/31 11:01:48;;;;;;;0.82;0.50;;;;;;;-145.69;100.00;52420.63;5010502;28;20656;-77
2022/12/31 11:04:55;;;;;;;0.40;0.40;;;;;;;-145.69;100.00;52432.50;5010240;28;20205;-78
2022/12/31 11:07:46;;;;;;;0.98;0.50;;;;;;;-145.69;99.28;52416.66;5040202;28;20207;-76
2022/12/31 11:10:32;;;;;;;1.00;0.50;;;;;;;-145.69;96.16;52440.44;5066330;28;20669;-77
2022/12/31 11:13:26;;;;;;;1.00;0.45;;;;;;;-145.69;98.21;52448.34;5071967;28;20641;-76
2022/12/31 11:16:15;;;;;;;1.52;0.50;;;;;;;-145.69;98.05;52412.69;5071263;28;20232;-77
2022/12/31 11:18:52;;;;;;;2.00;0.50;;;;;;;-145.69;95.86;52424.59;5072319;28;20195;-76
2022/12/31 11:21:38;;;;;;;1.17;0.70;;;;;;;-145.69;97.05;52412.69;5072133;28;20195;-76
2022/12/31 11:24:18;;;;;;;2.67;1.00;;;;;;;-145.69;95.29;52428.53;5067543;28;20198;-77
2022/12/31 11:27:02;;;;;;;1.00;0.60;;;;;;;-145.69;94.40;52430.53;5072004;28;20206;-76
2022/12/31 11:29:42;;;;;;;1.27;0.60;;;;;;;-145.69;98.87;52408.75;5072081;28;20202;-76
2022/12/31 11:32:23;;;;;;;1.27;0.60;;;;;;;-145.69;97.85;52440.44;5073072;28;20933;-76
2022/12/31 11:35:03;;;;;;;0.40;0.40;;;;;;;-145.69;97.13;52406.75;5075583;28;20211;-76
2022/12/31 11:37:40;;;;;;;0.75;0.60;;;;;;;-145.69;96.43;52383.00;5076157;28;20198;-77
2022/12/31 11:40:32;;;;;;;2.92;0.50;;;;;;;-145.69;97.38;52392.91;5075523;28;20249;-77
2022/12/31 11:43:02;;;;;;;1.17;0.50;;;;;;;-145.69;95.34;52388.94;5075744;28;20230;-76
2022/12/31 11:45:55;;;;;;;0.85;0.40;;;;;;;-145.69;89.65;52416.66;5073025;28;20703;-76
2022/12/31 11:48:29;;;;;;;0.43;0.40;;;;;;;-145.69;95.17;52394.88;5075645;28;20210;-76